createdAt,value
2022-09-13T00:00:49.723Z,72.18
2022-09-13T00:03:18.020Z,72.18
2022-09-13T00:05:50.519Z,70.66
2022-09-13T00:08:18.275Z,72.58
2022-09-13T00:10:45.946Z,71.84
2022-09-13T00:13:14.176Z,72.34
2022-09-13T00:15:43.932Z,71.95
2022-09-13T00:18:13.190Z,71.09
2022-09-13T00:20:41.094Z,72.50
2022-09-13T00:23:08.627Z,72.52
2022-09-13T00:25:38.742Z,72.63
2022-09-13T00:28:07.684Z,72.39
2022-09-13T00:30:35.362Z,73.26
2022-09-13T00:33:04.618Z,73.97
2022-09-13T00:35:35.688Z,73.99
2022-09-13T00:38:04.975Z,74.03
2022-09-13T00:40:32.509Z,75.41
2022-09-13T00:43:00.009Z,76.10
2022-09-13T00:45:29.714Z,75.62
2022-09-13T00:47:57.683Z,76.55
2022-09-13T00:50:26.461Z,74.56
2022-09-13T00:52:56.717Z,73.12
2022-09-13T00:55:26.035Z,75.02
2022-09-13T00:57:56.485Z,74.95
2022-09-13T01:00:26.943Z,73.07
2022-09-13T01:02:55.068Z,73.58
2022-09-13T01:05:23.906Z,72.61
2022-09-13T01:07:52.023Z,71.77
2022-09-13T01:10:23.446Z,72.65
2022-09-13T01:12:57.283Z,71.55
2022-09-13T01:15:24.809Z,71.95
2022-09-13T01:17:53.642Z,73.28
2022-09-13T01:20:24.298Z,73.41
2022-09-13T01:23:12.619Z,74.11
2022-09-13T01:25:58.891Z,74.96
2022-09-13T01:28:47.401Z,74.39
2022-09-13T01:31:17.776Z,73.25
2022-09-13T01:33:49.767Z,73.46
2022-09-13T01:36:38.875Z,72.29
2022-09-13T01:39:07.086Z,72.72
2022-09-13T01:41:47.430Z,70.65
2022-09-13T01:44:15.880Z,70.31
2022-09-13T01:46:47.382Z,72.71
2022-09-13T01:49:19.496Z,74.36
2022-09-13T01:51:48.582Z,74.35
2022-09-13T01:54:17.277Z,73.16
2022-09-13T01:56:46.724Z,73.35
2022-09-13T01:59:18.470Z,72.77
2022-09-13T02:01:52.336Z,72.30
2022-09-13T02:04:20.991Z,73.88
2022-09-13T02:06:50.244Z,74.60
2022-09-13T02:09:21.346Z,73.12
2022-09-13T02:11:52.787Z,73.51
2022-09-13T02:14:21.018Z,73.77
2022-09-13T02:16:50.633Z,72.92
2022-09-13T02:19:20.045Z,73.22
2022-09-13T02:21:49.015Z,72.49
2022-09-13T02:24:17.637Z,72.73
2022-09-13T02:26:47.052Z,73.98
2022-09-13T02:29:17.057Z,74.89
2022-09-13T02:31:45.625Z,75.24
2022-09-13T02:34:15.669Z,75.75
2022-09-13T02:36:46.580Z,76.17
2022-09-13T02:39:17.715Z,77.72
2022-09-13T02:41:45.824Z,75.58
2022-09-13T02:44:17.834Z,75.15
2022-09-13T02:46:53.978Z,75.00
2022-09-13T02:49:24.717Z,77.35
2022-09-13T02:51:56.391Z,77.08
2022-09-13T02:54:25.559Z,76.45
2022-09-13T02:56:55.943Z,76.19
2022-09-13T02:59:24.538Z,77.14
2022-09-13T03:01:54.035Z,76.91
2022-09-13T03:04:23.389Z,76.77
2022-09-13T03:06:51.370Z,76.62
2022-09-13T03:09:19.277Z,74.48
2022-09-13T03:11:52.549Z,73.08
2022-09-13T03:14:21.426Z,72.17
2022-09-13T03:16:59.269Z,73.88
2022-09-13T03:19:38.574Z,75.62
2022-09-13T03:22:13.493Z,76.67
2022-09-13T03:24:43.345Z,74.44
2022-09-13T03:27:15.902Z,75.88
2022-09-13T03:29:53.530Z,75.90
2022-09-13T03:32:23.488Z,78.36
2022-09-13T03:34:54.948Z,76.70
2022-09-13T03:37:24.816Z,75.78
2022-09-13T03:39:54.248Z,74.08
2022-09-13T03:42:27.214Z,74.48
2022-09-13T03:44:57.045Z,74.22
2022-09-13T03:47:26.612Z,72.36
2022-09-13T03:49:55.725Z,71.33
2022-09-13T03:52:23.315Z,70.96
2022-09-13T03:54:54.509Z,73.63
2022-09-13T03:57:23.757Z,73.14
2022-09-13T03:59:52.046Z,73.21
2022-09-13T04:02:21.229Z,74.38
2022-09-13T04:04:51.800Z,73.49
2022-09-13T04:07:21.546Z,74.42
2022-09-13T04:09:52.524Z,75.57
2022-09-13T04:12:20.490Z,74.76
2022-09-13T04:14:51.211Z,74.83
2022-09-13T04:17:18.817Z,74.71
2022-09-13T04:19:47.252Z,74.68
2022-09-13T04:22:15.098Z,73.73
2022-09-13T04:24:44.707Z,74.93
2022-09-13T04:27:12.321Z,75.90
2022-09-13T04:29:39.916Z,75.51
2022-09-13T04:32:08.219Z,75.63
2022-09-13T04:34:35.761Z,74.40
2022-09-13T04:37:03.282Z,75.34
2022-09-13T04:39:31.225Z,75.79
2022-09-13T04:42:02.429Z,74.25
2022-09-13T04:44:30.038Z,72.36
2022-09-13T04:46:57.566Z,71.92
2022-09-13T04:49:25.753Z,71.67
2022-09-13T04:51:53.369Z,73.14
2022-09-13T04:54:22.304Z,73.33
2022-09-13T04:56:49.975Z,73.81
2022-09-13T04:59:19.575Z,73.89
2022-09-13T05:01:47.208Z,73.73
2022-09-13T05:04:15.250Z,72.51
2022-09-13T05:06:42.981Z,73.37
2022-09-13T05:09:12.248Z,72.53
2022-09-13T05:11:42.243Z,71.98
2022-09-13T05:14:10.955Z,73.52
2022-09-13T05:16:40.967Z,72.41
2022-09-13T05:19:10.754Z,72.62
2022-09-13T05:21:38.652Z,72.35
2022-09-13T05:24:12.038Z,73.18
2022-09-13T05:26:39.712Z,71.54
2022-09-13T05:29:07.358Z,75.04
2022-09-13T05:31:36.384Z,75.23
2022-09-13T05:34:07.287Z,74.60
2022-09-13T05:36:34.808Z,72.99
2022-09-13T05:39:29.005Z,72.47
2022-09-13T05:41:52.070Z,71.65
2022-09-13T05:44:22.935Z,73.27
2022-09-13T05:46:51.017Z,72.98
2022-09-13T05:49:20.557Z,73.34
2022-09-13T05:51:49.592Z,71.54
2022-09-13T05:54:18.321Z,73.00
2022-09-13T05:56:45.999Z,72.09
2022-09-13T05:59:15.257Z,73.28
2022-09-13T06:01:43.096Z,73.65
2022-09-13T06:04:13.650Z,73.23
2022-09-13T06:06:43.382Z,72.64
2022-09-13T06:09:14.016Z,72.54
2022-09-13T06:11:42.437Z,74.17
2022-09-13T06:14:11.018Z,74.84
2022-09-13T06:16:39.008Z,75.15
2022-09-13T06:19:07.006Z,74.58
2022-09-13T06:21:37.612Z,73.38
2022-09-13T06:24:07.641Z,72.80
2022-09-13T06:26:35.184Z,74.37
2022-09-13T06:29:02.815Z,75.14
2022-09-13T06:31:30.557Z,73.98
2022-09-13T06:34:10.215Z,71.27
2022-09-13T06:36:37.895Z,70.25
2022-09-13T06:39:08.074Z,70.74
2022-09-13T06:41:39.602Z,71.70
2022-09-13T06:44:10.849Z,72.16
2022-09-13T06:46:38.482Z,72.82
2022-09-13T06:49:06.931Z,73.25
2022-09-13T06:51:35.719Z,71.61
2022-09-13T06:54:06.393Z,70.95
2022-09-13T06:56:36.568Z,70.76
2022-09-13T06:59:07.156Z,71.01
2022-09-13T07:01:35.682Z,70.27
2022-09-13T07:04:05.780Z,70.04
2022-09-13T07:06:34.559Z,70.17
2022-09-13T07:09:03.500Z,70.57
2022-09-13T07:11:32.595Z,71.87
2022-09-13T07:14:02.147Z,71.91
2022-09-13T07:16:30.976Z,70.54
2022-09-13T07:18:59.885Z,69.91
2022-09-13T07:21:28.270Z,68.90
2022-09-13T07:23:56.372Z,68.21
2022-09-13T07:26:25.235Z,67.37
2022-09-13T07:29:08.111Z,66.33
2022-09-13T07:31:39.604Z,65.70
2022-09-13T07:34:09.058Z,67.41
2022-09-13T07:36:37.126Z,66.77
2022-09-13T07:39:05.639Z,66.91
2022-09-13T07:41:37.026Z,67.19
2022-09-13T07:44:06.472Z,66.14
2022-09-13T07:46:36.458Z,64.75
2022-09-13T07:49:06.064Z,63.62
2022-09-13T07:51:35.005Z,63.23
2022-09-13T07:54:03.565Z,64.14
2022-09-13T07:56:31.834Z,62.38
2022-09-13T07:59:00.949Z,63.16
2022-09-13T08:01:29.776Z,61.80
2022-09-13T08:03:58.457Z,62.37
2022-09-13T08:06:28.748Z,61.78
2022-09-13T08:08:59.014Z,61.14
2022-09-13T08:11:27.202Z,61.50
2022-09-13T08:13:55.360Z,62.46
2022-09-13T08:16:23.763Z,61.73
2022-09-13T08:18:51.786Z,61.53
2022-09-13T08:21:22.807Z,62.68
2022-09-13T08:24:01.341Z,60.33
2022-09-13T08:26:31.906Z,60.50
2022-09-13T08:29:02.970Z,59.68
2022-09-13T08:31:32.887Z,61.78
2022-09-13T08:34:00.762Z,59.35
2022-09-13T08:36:32.021Z,60.23
2022-09-13T08:39:02.071Z,60.46
2022-09-13T08:41:42.263Z,58.53
2022-09-13T08:44:10.781Z,60.60
2022-09-13T08:46:40.668Z,59.62
2022-09-13T08:49:11.923Z,57.51
2022-09-13T08:51:43.608Z,57.12
2022-09-13T08:54:12.939Z,57.77
2022-09-13T08:56:42.336Z,57.90
2022-09-13T08:59:28.332Z,56.18
2022-09-13T09:01:59.406Z,55.23
2022-09-13T09:04:32.545Z,54.42
2022-09-13T09:07:03.030Z,53.29
2022-09-13T09:09:33.543Z,54.04
2022-09-13T09:12:04.797Z,54.20
2022-09-13T09:14:33.449Z,51.53
2022-09-13T09:17:01.779Z,52.23
2022-09-13T09:19:34.595Z,51.86
2022-09-13T09:22:05.381Z,52.70
2022-09-13T09:24:36.699Z,51.30
2022-09-13T09:27:07.138Z,50.39
2022-09-13T09:29:36.203Z,49.22
2022-09-13T09:32:09.523Z,49.97
2022-09-13T09:34:46.328Z,49.65
2022-09-13T09:37:16.505Z,48.75
2022-09-13T09:39:45.700Z,49.53
2022-09-13T09:42:14.530Z,48.33
2022-09-13T09:44:43.330Z,48.50
2022-09-13T09:47:12.515Z,46.97
2022-09-13T09:49:54.585Z,47.05
2022-09-13T09:52:22.760Z,47.33
2022-09-13T09:54:53.419Z,47.70
2022-09-13T09:57:26.150Z,47.91
2022-09-13T09:59:54.447Z,48.09
2022-09-13T10:02:23.022Z,48.04
2022-09-13T10:04:57.320Z,48.56
2022-09-13T10:07:29.114Z,48.26
2022-09-13T10:10:08.772Z,47.49
2022-09-13T10:12:37.801Z,47.42
2022-09-13T10:15:15.958Z,47.42
2022-09-13T10:17:46.738Z,47.62
2022-09-13T10:20:22.998Z,48.42
2022-09-13T10:23:11.146Z,49.79
2022-09-13T10:25:45.932Z,49.31
2022-09-13T10:28:15.841Z,49.51
2022-09-13T10:30:45.513Z,47.57
2022-09-13T10:33:18.101Z,46.02
2022-09-13T10:35:51.288Z,46.35
2022-09-13T10:38:20.946Z,46.64
2022-09-13T10:40:52.010Z,46.45
2022-09-13T10:43:21.951Z,47.02
2022-09-13T10:45:52.971Z,45.12
2022-09-13T10:48:21.609Z,43.78
2022-09-13T10:51:02.029Z,43.81
2022-09-13T10:53:37.588Z,43.81
2022-09-13T10:56:08.008Z,45.52
2022-09-13T10:58:51.788Z,43.60
2022-09-13T11:01:41.131Z,43.37
2022-09-13T11:04:33.040Z,42.50
2022-09-13T11:07:05.859Z,42.85
2022-09-13T11:09:35.162Z,43.46
2022-09-13T11:12:07.704Z,45.42
2022-09-13T11:14:43.874Z,44.16
2022-09-13T11:17:15.494Z,43.90
2022-09-13T11:19:56.342Z,44.42
2022-09-13T11:22:30.503Z,43.62
2022-09-13T11:25:06.708Z,42.06
2022-09-13T11:27:38.499Z,41.58
2022-09-13T11:30:11.048Z,40.67
2022-09-13T11:32:42.701Z,42.12
2022-09-13T11:35:23.862Z,40.96
2022-09-13T11:37:52.486Z,43.67
2022-09-13T11:40:24.922Z,46.49
2022-09-13T11:42:55.487Z,47.64
2022-09-13T11:45:24.883Z,48.66
2022-09-13T11:47:57.322Z,48.19
2022-09-13T11:50:27.656Z,48.28
2022-09-13T11:53:01.542Z,48.31
2022-09-13T11:55:29.643Z,47.38
2022-09-13T11:57:59.929Z,48.03
2022-09-13T12:00:30.310Z,49.03
2022-09-13T12:03:02.878Z,49.01
2022-09-13T12:05:32.062Z,48.89
2022-09-13T12:08:02.255Z,48.82
2022-09-13T12:10:31.080Z,48.80
2022-09-13T12:13:01.592Z,48.35
2022-09-13T12:15:45.635Z,47.15
2022-09-13T12:18:15.103Z,45.78
2022-09-13T12:20:43.865Z,45.55
2022-09-13T12:23:14.122Z,46.26
2022-09-13T12:25:47.864Z,46.76
2022-09-13T12:28:20.240Z,45.26
2022-09-13T12:30:48.985Z,45.08
2022-09-13T12:33:19.774Z,45.74
2022-09-13T12:35:51.137Z,45.55
2022-09-13T12:38:31.463Z,44.92
2022-09-13T12:41:04.762Z,43.98
2022-09-13T12:44:08.102Z,43.98
2022-09-13T12:46:43.867Z,44.89
2022-09-13T12:49:26.091Z,43.85
2022-09-13T12:51:58.091Z,44.42
2022-09-13T12:54:43.813Z,43.67
2022-09-13T12:57:19.186Z,44.00
2022-09-13T13:00:05.156Z,44.12
2022-09-13T13:02:38.088Z,43.45
2022-09-13T13:05:07.308Z,43.49
2022-09-13T13:07:47.231Z,43.55
2022-09-13T13:10:23.695Z,43.81
2022-09-13T13:12:51.985Z,43.31
2022-09-13T13:15:37.305Z,42.23
2022-09-13T13:18:19.923Z,42.38
2022-09-13T13:21:04.924Z,42.27
2022-09-13T13:23:41.704Z,42.61
2022-09-13T13:26:11.579Z,42.12
2022-09-13T13:29:05.857Z,40.99
2022-09-13T13:31:43.369Z,41.26
2022-09-13T13:34:35.162Z,40.80
2022-09-13T13:37:09.376Z,41.40
2022-09-13T13:39:38.483Z,42.25
2022-09-13T13:42:21.029Z,41.69
2022-09-13T13:44:59.526Z,41.16
2022-09-13T13:47:46.086Z,41.15
2022-09-13T13:50:16.097Z,41.98
2022-09-13T13:52:56.978Z,42.65
2022-09-13T13:55:30.187Z,42.95
2022-09-13T13:58:00.148Z,43.07
2022-09-13T14:00:28.422Z,42.56
2022-09-13T14:02:58.640Z,42.84
2022-09-13T14:05:27.243Z,41.89
2022-09-13T14:08:02.235Z,42.19
2022-09-13T14:10:30.956Z,42.62
2022-09-13T14:13:16.982Z,43.29
2022-09-13T14:15:48.091Z,43.66
2022-09-13T14:18:23.692Z,42.98
2022-09-13T14:21:11.980Z,42.33
2022-09-13T14:23:49.116Z,41.47
2022-09-13T14:26:20.648Z,40.89
2022-09-13T14:28:49.180Z,41.78
2022-09-13T14:31:18.496Z,42.27
2022-09-13T14:33:51.529Z,42.35
2022-09-13T14:36:20.504Z,42.70
2022-09-13T14:38:54.401Z,42.43
2022-09-13T14:41:24.925Z,42.92
2022-09-13T14:43:52.878Z,43.31
2022-09-13T14:46:28.158Z,44.08
2022-09-13T14:48:59.209Z,43.61
2022-09-13T14:51:27.870Z,44.59
2022-09-13T14:53:58.311Z,44.80
2022-09-13T14:56:29.249Z,45.24
2022-09-13T14:58:57.943Z,45.26
2022-09-13T15:01:28.187Z,45.77
2022-09-13T15:03:57.092Z,45.68
2022-09-13T15:06:27.829Z,45.53
2022-09-13T15:08:58.638Z,45.39
2022-09-13T15:11:31.209Z,44.96
2022-09-13T15:14:03.672Z,45.69
2022-09-13T15:16:36.309Z,45.34
2022-09-13T15:19:16.546Z,45.29
2022-09-13T15:21:46.713Z,45.74
2022-09-13T15:24:26.798Z,45.70
2022-09-13T15:27:02.652Z,45.29
2022-09-13T15:29:35.066Z,44.92
2022-09-13T15:32:03.685Z,45.52
2022-09-13T15:34:41.557Z,45.47
2022-09-13T15:37:11.560Z,45.88
2022-09-13T15:39:48.414Z,45.46
2022-09-13T15:42:22.490Z,45.31
2022-09-13T15:44:50.172Z,45.43
2022-09-13T15:47:21.526Z,45.08
2022-09-13T15:49:53.319Z,45.22
2022-09-13T15:52:21.846Z,44.92
2022-09-13T15:54:51.517Z,45.26
2022-09-13T15:57:19.575Z,45.01
2022-09-13T15:59:47.344Z,45.01
2022-09-13T16:02:21.226Z,44.91
2022-09-13T16:04:51.759Z,44.87
2022-09-13T16:07:23.320Z,44.84
2022-09-13T16:09:57.160Z,44.98
2022-09-13T16:12:27.102Z,44.97
2022-09-13T16:14:57.013Z,44.82
2022-09-13T16:17:28.933Z,43.77
2022-09-13T16:19:56.853Z,43.66
2022-09-13T16:22:27.495Z,42.85
2022-09-13T16:24:59.690Z,43.22
2022-09-13T16:27:33.294Z,42.67
2022-09-13T16:30:01.767Z,42.11
2022-09-13T16:32:35.313Z,41.92
2022-09-13T16:35:02.933Z,41.86
2022-09-13T16:37:33.405Z,41.68
2022-09-13T16:40:03.404Z,41.10
2022-09-13T16:42:34.174Z,40.90
2022-09-13T16:45:01.939Z,41.21
2022-09-13T16:47:30.023Z,40.88
2022-09-13T16:49:57.742Z,41.35
2022-09-13T16:52:30.232Z,40.93
2022-09-13T16:55:00.418Z,41.12
2022-09-13T16:57:32.560Z,41.24
2022-09-13T17:00:00.586Z,41.18
2022-09-13T17:02:30.052Z,40.91
2022-09-13T17:04:57.808Z,41.33
2022-09-13T17:07:30.400Z,42.66
2022-09-13T17:10:00.593Z,41.65
2022-09-13T17:12:32.831Z,41.38
2022-09-13T17:15:01.004Z,41.84
2022-09-13T17:17:29.797Z,41.65
2022-09-13T17:19:58.786Z,42.18
2022-09-13T17:22:28.954Z,42.89
2022-09-13T17:24:57.872Z,42.25
2022-09-13T17:27:26.916Z,42.54
2022-09-13T17:29:57.177Z,42.28
2022-09-13T17:32:24.723Z,42.28
2022-09-13T17:34:56.798Z,42.45
2022-09-13T17:37:25.219Z,42.82
2022-09-13T17:39:55.697Z,43.77
2022-09-13T17:42:23.725Z,46.57
2022-09-13T17:44:51.977Z,47.67
2022-09-13T17:47:21.373Z,47.56
2022-09-13T17:49:51.815Z,48.13
2022-09-13T17:52:19.724Z,44.93
2022-09-13T17:54:47.986Z,44.86
2022-09-13T17:57:16.049Z,45.35
2022-09-13T17:59:44.032Z,44.94
2022-09-13T18:02:13.467Z,47.34
2022-09-13T18:04:45.950Z,47.83
2022-09-13T18:07:18.441Z,47.01
2022-09-13T18:09:52.755Z,46.63
2022-09-13T18:12:20.574Z,47.11
2022-09-13T18:14:48.500Z,46.90
2022-09-13T18:17:21.087Z,47.06
2022-09-13T18:19:52.400Z,46.93
2022-09-13T18:22:23.190Z,47.34
2022-09-13T18:24:50.967Z,48.50
2022-09-13T18:27:18.926Z,49.08
2022-09-13T18:29:48.623Z,49.05
2022-09-13T18:32:16.562Z,48.60
2022-09-13T18:34:44.655Z,50.11
2022-09-13T18:37:15.424Z,49.09
2022-09-13T18:39:43.094Z,49.33
2022-09-13T18:42:11.165Z,49.33
2022-09-13T18:44:39.112Z,49.69
2022-09-13T18:47:13.008Z,49.48
2022-09-13T18:49:40.595Z,49.61
2022-09-13T18:52:08.234Z,50.53
2022-09-13T18:54:42.243Z,50.49
2022-09-13T18:57:10.523Z,50.91
2022-09-13T18:59:38.445Z,51.17
2022-09-13T19:02:06.266Z,50.81
2022-09-13T19:04:36.342Z,50.80
2022-09-13T19:07:06.628Z,51.26
2022-09-13T19:09:37.047Z,51.42
2022-09-13T19:12:07.314Z,51.75
2022-09-13T19:14:35.480Z,51.72
2022-09-13T19:17:04.674Z,52.52
2022-09-13T19:19:33.753Z,52.71
2022-09-13T19:22:03.322Z,53.87
2022-09-13T19:24:37.982Z,54.23
2022-09-13T19:27:07.239Z,54.00
2022-09-13T19:29:37.474Z,54.42
2022-09-13T19:32:06.432Z,54.27
2022-09-13T19:34:37.581Z,54.24
2022-09-13T19:37:05.274Z,53.86
2022-09-13T19:39:34.047Z,54.20
2022-09-13T19:42:02.084Z,54.19
2022-09-13T19:44:31.518Z,55.04
2022-09-13T19:47:45.007Z,55.14
2022-09-13T19:49:49.715Z,55.14
2022-09-13T19:52:32.639Z,54.97
2022-09-13T19:55:00.678Z,54.66
2022-09-13T19:57:29.597Z,55.30
2022-09-13T19:59:58.809Z,55.42
2022-09-13T20:02:26.708Z,55.66
2022-09-13T20:04:54.277Z,56.11
2022-09-13T20:07:27.125Z,55.81
2022-09-13T20:10:00.018Z,55.26
2022-09-13T20:12:27.892Z,55.20
2022-09-13T20:14:58.009Z,55.89
2022-09-13T20:17:27.241Z,55.71
2022-09-13T20:19:59.439Z,56.71
2022-09-13T20:22:27.157Z,56.91
2022-09-13T20:24:54.905Z,56.43
2022-09-13T20:27:22.542Z,56.61
2022-09-13T20:29:52.699Z,56.85
2022-09-13T20:32:24.264Z,57.49
2022-09-13T20:34:55.582Z,57.53
2022-09-13T20:37:23.508Z,57.10
2022-09-13T20:39:51.407Z,57.41
2022-09-13T20:42:19.005Z,57.97
2022-09-13T20:44:47.178Z,58.34
2022-09-13T20:47:14.697Z,58.63
2022-09-13T20:49:44.472Z,58.52
2022-09-13T20:52:14.250Z,58.35
2022-09-13T20:54:42.155Z,58.36
2022-09-13T20:57:11.019Z,58.01
2022-09-13T20:59:38.913Z,57.97
2022-09-13T21:02:06.695Z,59.03
2022-09-13T21:04:34.376Z,59.15
2022-09-13T21:07:19.166Z,58.47
2022-09-13T21:09:49.322Z,57.86
2022-09-13T21:12:18.036Z,57.23
2022-09-13T21:14:46.663Z,57.07
2022-09-13T21:17:16.556Z,57.71
2022-09-13T21:19:44.101Z,57.98
2022-09-13T21:22:12.059Z,57.80
2022-09-13T21:24:39.691Z,57.62
2022-09-13T21:27:12.113Z,57.79
2022-09-13T21:29:40.186Z,57.81
2022-09-13T21:32:08.072Z,58.06
2022-09-13T21:34:35.932Z,57.90
2022-09-13T21:37:03.733Z,58.35
2022-09-13T21:42:16.607Z,58.06
2022-09-13T21:44:47.425Z,57.15
2022-09-13T21:47:15.551Z,56.77
2022-09-13T21:49:46.947Z,56.97
2022-09-13T21:52:14.641Z,56.70
2022-09-13T21:54:42.193Z,56.62
2022-09-13T21:57:09.724Z,56.98
2022-09-13T21:59:38.741Z,57.18
2022-09-13T22:02:32.380Z,57.00
2022-09-13T22:04:58.638Z,58.59
2022-09-13T22:07:26.187Z,58.76
2022-09-13T22:09:57.143Z,58.49
2022-09-13T22:12:26.486Z,59.08
2022-09-13T22:15:00.556Z,59.22
2022-09-13T22:17:28.680Z,59.18
2022-09-13T22:19:58.432Z,58.91
2022-09-13T22:22:26.085Z,58.64
2022-09-13T22:24:55.954Z,58.91
2022-09-13T22:27:23.466Z,58.19
2022-09-13T22:29:57.665Z,57.99
2022-09-13T22:32:30.484Z,58.22
2022-09-13T22:35:01.710Z,58.48
2022-09-13T22:37:29.286Z,58.62
2022-09-13T22:39:59.369Z,58.71
2022-09-13T22:42:27.136Z,59.21
2022-09-13T22:44:54.657Z,58.20
2022-09-13T22:47:24.948Z,58.61
2022-09-13T22:49:53.809Z,59.29
2022-09-13T22:52:24.138Z,60.38
2022-09-13T22:54:55.207Z,60.97
2022-09-13T22:57:27.882Z,61.62
2022-09-13T23:00:09.354Z,61.72
2022-09-13T23:02:36.951Z,61.01
2022-09-13T23:05:06.194Z,61.20
2022-09-13T23:07:34.081Z,62.11
2022-09-13T23:10:03.745Z,61.74
2022-09-13T23:12:31.359Z,62.69
2022-09-13T23:14:59.388Z,62.21
2022-09-13T23:17:35.763Z,62.99
2022-09-13T23:20:03.708Z,62.21
2022-09-13T23:22:37.433Z,62.01
2022-09-13T23:25:08.173Z,62.40
2022-09-13T23:27:35.742Z,61.49
2022-09-13T23:30:05.668Z,61.55
2022-09-13T23:32:33.519Z,62.30
2022-09-13T23:35:01.414Z,62.97
2022-09-13T23:37:29.026Z,63.83
2022-09-13T23:40:01.968Z,64.48
2022-09-13T23:42:32.789Z,63.19
2022-09-13T23:45:02.643Z,63.29
2022-09-13T23:47:33.234Z,62.99
2022-09-13T23:50:01.313Z,63.40
2022-09-13T23:52:30.985Z,62.99
2022-09-13T23:55:03.532Z,63.02
2022-09-13T23:57:33.481Z,62.36
